Date,TemperatureHighF,TemperatureAvgF,TemperatureLowF,DewpointHighF,DewpointAvgF,DewpointLowF,HumidityHigh,HumidityAvg,HumidityLow,PressureMaxIn,PressureMinIn,WindSpeedMaxMPH,WindSpeedAvgMPH,GustSpeedMaxMPH,PrecipitationSumIn
2013-2-1,23.9,19.4,16.8,16.2,12.5,7.8,87,74,56,30.22,29.75,5,3,15,0.00
2013-2-2,20.5,17.7,14.0,17.4,13.2,6.1,92,83,70,30.21,29.99,5,2,12,0.00
2013-2-3,26.7,18.6,8.4,18.1,13.9,6.3,93,82,57,30.00,29.82,3,0,6,0.00
2013-2-4,21.5,17.7,13.1,14.2,11.3,8.0,84,76,62,30.01,29.90,4,2,8,0.00
2013-2-5,29.7,22.2,14.7,23.0,15.7,11.1,91,77,55,29.97,29.86,4,1,9,0.00
2013-2-6,28.1,24.7,17.8,23.7,17.0,12.3,87,73,55,30.38,29.90,5,2,8,0.00
2013-2-7,32.2,24.9,17.3,21.3,17.5,13.3,86,74,59,30.39,30.07,4,1,9,0.00
2013-2-8,32.4,26.0,16.8,31.1,23.1,14.4,95,89,78,30.17,29.78,3,1,5,0.00
2013-2-9,22.8,17.5,10.7,17.3,14.2,8.6,94,87,77,30.45,30.17,1,0,2,0.00
2013-2-10,40.6,24.1,3.1,29.0,16.9,0.6,93,76,52,30.43,29.93,3,0,5,0.08
2013-2-11,50.1,38.7,32.0,41.7,32.1,24.6,93,78,53,29.94,29.58,9,5,20,0.34
2013-2-12,33.9,32.2,30.6,29.7,27.0,23.4,92,81,74,29.99,29.75,7,4,15,0.00
2013-2-13,38.4,31.0,22.2,25.2,23.3,19.7,91,73,56,29.92,29.74,3,0,5,0.00
2013-2-14,24.0,23.0,21.4,21.7,20.8,19.0,93,91,89,29.86,29.83,0,0,0,0.00
2013-2-15,32.8,26.3,20.4,22.6,17.7,14.5,81,70,62,30.09,29.98,5,2,9,0.00
2013-2-16,31.0,24.2,18.9,20.8,15.2,9.4,88,69,48,30.09,29.93,3,1,5,0.00
2013-2-17,20.4,15.8,11.6,17.8,9.5,4.2,90,76,61,30.26,29.93,5,2,10,0.00
2013-2-18,36.4,23.2,7.9,22.8,12.0,4.8,91,64,39,30.31,29.88,3,1,5,0.00
2013-2-19,43.5,34.1,23.3,37.1,27.4,18.5,92,77,50,29.88,29.55,8,4,16,0.46
2013-2-20,23.8,20.9,18.8,18.4,13.5,10.7,86,73,61,30.14,29.79,7,5,13,0.00
2013-2-21,23.9,19.8,15.7,15.9,13.2,10.1,84,75,63,30.44,30.11,4,2,12,0.00
2013-2-22,35.8,28.3,20.4,31.1,23.1,15.8,91,81,64,30.41,29.99,4,1,9,0.03
2013-2-23,38.5,33.5,30.3,31.9,28.4,24.5,85,81,74,29.99,29.89,4,2,9,0.01
2013-2-24,32.1,30.2,28.1,26.9,25.1,23.6,89,81,75,30.11,29.87,4,2,12,0.00
2013-2-25,35.5,30.8,23.9,29.0,25.8,21.9,93,82,73,30.25,30.11,3,1,4,0.00
2013-2-26,43.7,33.6,22.5,33.2,26.6,20.7,94,78,49,30.24,29.70,6,2,12,0.88
2013-2-27,35.2,33.8,32.4,34.1,32.4,31.4,97,94,90,29.72,29.58,5,1,7,0.50
2013-2-28,34.5,32.8,31.4,32.1,31.5,29.6,97,95,90,29.78,29.56,3,1,7,0.26